Ralls, Texas
Current Conditions -  °F | °C
As of 12:53 PM on Thursday 23 Oct 2014 (Local Time) from KLBB Reporting Station
Overcast Overcast  
Wind Chill: 61°   Ceiling: 400
Heat Index: 61°   Visibility: 7mi
Dew Point: 57°   Wind: 7mph
Humidity: 87%   Direction: 230°SW
Pressure: 30.17"   Gusts: NA
Location:  33.67°N, 101.39°W
Report Text: KLBB 231753Z 23006KT 7SM OVC004 16/14 A3017 RMK AO2 SLP187 T01610139 10161 20100 $
Loading
Personal Weather Stations






























Interactive Weather Map
Tropical Storm Tracking
New forecast layout! Learn more

10-Day Weather Forecast

Advertisements
Track Severe Weather on mobile